Time;durP1;ratioP1;P1;durP2;ratioP2;P2;SDS_P1;SDS_P2;PMS_P1;PMS_P2;Temp;Humidity;BMP_temperature;BMP_pressure;BME280_temperature;BME280_humidity;BME280_pressure;Samples;Min_cycle;Max_cycle;Signal;HPM_P1;HPM_P2
2023/01/02 00:00:00;;;;;;;0.8;0.8;;;;;;;11.4;100.0;100790;;;;
2023/01/02 00:01:01;;;;;;;0.8;0.8;;;;;;;11.4;100.0;100790;;;;
2023/01/02 00:02:00;;;;;;;0.8;0.8;;;;;;;11.4;100.0;100770;;;;
2023/01/02 00:03:00;;;;;;;0.8;0.8;;;;;;;11.4;100.0;100770;;;;
2023/01/02 00:04:00;;;;;;;0.8;0.8;;;;;;;11.5;100.0;100770;;;;
2023/01/02 00:05:00;;;;;;;0.8;0.8;;;;;;;11.5;100.0;100770;;;;
2023/01/02 00:06:04;;;;;;;0.8;0.8;;;;;;;11.5;100.0;100780;;;;
2023/01/02 00:07:00;;;;;;;0.8;0.8;;;;;;;11.5;100.0;100780;;;;
2023/01/02 00:08:00;;;;;;;0.8;0.8;;;;;;;11.6;100.0;100770;;;;
2023/01/02 00:09:00;;;;;;;0.8;0.8;;;;;;;11.6;100.0;100770;;;;
2023/01/02 00:10:00;;;;;;;0.8;0.8;;;;;;;11.6;100.0;100770;;;;
2023/01/02 00:11:00;;;;;;;0.8;0.8;;;;;;;11.6;100.0;100770;;;;
2023/01/02 00:12:00;;;;;;;0.8;0.8;;;;;;;11.5;100.0;100770;;;;
2023/01/02 00:13:00;;;;;;;0.8;0.8;;;;;;;11.5;100.0;100770;;;;
2023/01/02 00:14:00;;;;;;;0.8;0.8;;;;;;;11.6;100.0;100770;;;;
2023/01/02 00:15:01;;;;;;;0.8;0.8;;;;;;;11.6;100.0;100770;;;;
2023/01/02 00:16:00;;;;;;;0.7;0.7;;;;;;;11.5;100.0;100780;;;;
2023/01/02 00:17:00;;;;;;;0.7;0.7;;;;;;;11.5;100.0;100780;;;;
2023/01/02 00:18:00;;;;;;;0.7;0.7;;;;;;;11.6;100.0;100780;;;;
2023/01/02 00:19:00;;;;;;;0.7;0.7;;;;;;;11.6;100.0;100780;;;;
2023/01/02 00:20:00;;;;;;;0.7;0.7;;;;;;;11.6;100.0;100790;;;;
2023/01/02 00:21:04;;;;;;;0.7;0.7;;;;;;;11.6;100.0;100790;;;;
2023/01/02 00:22:00;;;;;;;0.7;0.7;;;;;;;11.7;100.0;100780;;;;
2023/01/02 00:23:00;;;;;;;0.7;0.7;;;;;;;11.7;100.0;100780;;;;
2023/01/02 00:24:00;;;;;;;0.7;0.7;;;;;;;11.8;100.0;100780;;;;
2023/01/02 00:25:00;;;;;;;0.7;0.7;;;;;;;11.8;100.0;100780;;;;
2023/01/02 00:26:00;;;;;;;0.7;0.7;;;;;;;11.8;100.0;100780;;;;
2023/01/02 00:27:00;;;;;;;0.7;0.7;;;;;;;11.8;100.0;100780;;;;
2023/01/02 00:28:01;;;;;;;0.7;0.7;;;;;;;11.8;100.0;100770;;;;
2023/01/02 00:29:00;;;;;;;0.7;0.7;;;;;;;11.8;100.0;100770;;;;
2023/01/02 00:30:00;;;;;;;0.7;0.7;;;;;;;11.7;100.0;100770;;;;
2023/01/02 00:31:08;;;;;;;0.7;0.7;;;;;;;11.7;100.0;100770;;;;
2023/01/02 00:32:00;;;;;;;0.7;0.7;;;;;;;11.7;100.0;100770;;;;
2023/01/02 00:33:00;;;;;;;0.7;0.7;;;;;;;11.7;100.0;100770;;;;
2023/01/02 00:34:00;;;;;;;0.7;0.7;;;;;;;11.8;100.0;100770;;;;
2023/01/02 00:35:00;;;;;;;0.7;0.7;;;;;;;11.8;100.0;100770;;;;
2023/01/02 00:36:02;;;;;;;2.5;1.5;;;;;;;11.7;100.0;100760;;;;
2023/01/02 00:37:00;;;;;;;2.5;1.5;;;;;;;11.7;100.0;100760;;;;
2023/01/02 00:38:00;;;;;;;2.5;1.5;;;;;;;11.7;100.0;100760;;;;
2023/01/02 00:39:00;;;;;;;2.5;1.5;;;;;;;11.7;100.0;100760;;;;
2023/01/02 00:40:00;;;;;;;2.5;1.5;;;;;;;11.7;100.0;100750;;;;
2023/01/02 00:41:00;;;;;;;2.5;1.5;;;;;;;11.7;100.0;100750;;;;
2023/01/02 00:42:00;;;;;;;2.5;1.5;;;;;;;11.7;100.0;100750;;;;
2023/01/02 00:43:00;;;;;;;2.5;1.5;;;;;;;11.7;100.0;100750;;;;
2023/01/02 00:44:00;;;;;;;2.5;1.5;;;;;;;11.7;100.0;100750;;;;
2023/01/02 00:45:00;;;;;;;2.5;1.5;;;;;;;11.7;100.0;100750;;;;
2023/01/02 00:46:03;;;;;;;2.5;1.5;;;;;;;11.7;100.0;100750;;;;
2023/01/02 00:47:00;;;;;;;2.5;1.5;;;;;;;11.7;100.0;100750;;;;
2023/01/02 00:48:00;;;;;;;2.5;1.5;;;;;;;11.7;100.0;100750;;;;
2023/01/02 00:49:00;;;;;;;2.5;1.5;;;;;;;11.7;100.0;100750;;;;
2023/01/02 00:50:00;;;;;;;2.5;1.5;;;;;;;11.8;100.0;100760;;;;
2023/01/02 00:51:00;;;;;;;2.5;1.5;;;;;;;11.8;100.0;100760;;;;
2023/01/02 00:52:00;;;;;;;2.5;1.5;;;;;;;11.8;100.0;100750;;;;
2023/01/02 00:53:00;;;;;;;2.5;1.5;;;;;;;11.8;100.0;100750;;;;
2023/01/02 00:54:00;;;;;;;2.5;1.5;;;;;;;11.7;100.0;100750;;;;
2023/01/02 00:55:00;;;;;;;0.7;0.7;;;;;;;11.7;100.0;100750;;;;
2023/01/02 00:56:00;;;;;;;0.7;0.7;;;;;;;11.8;100.0;100740;;;;
2023/01/02 00:57:00;;;;;;;0.7;0.7;;;;;;;11.8;100.0;100740;;;;
2023/01/02 00:58:00;;;;;;;0.7;0.7;;;;;;;11.9;100.0;100740;;;;
2023/01/02 00:59:00;;;;;;;0.7;0.7;;;;;;;11.9;100.0;100740;;;;
2023/01/02 01:00:00;;;;;;;0.7;0.7;;;;;;;11.8;100.0;100740;;;;
2023/01/02 01:01:00;;;;;;;0.7;0.7;;;;;;;11.8;100.0;100740;;;;
2023/01/02 01:02:00;;;;;;;0.7;0.7;;;;;;;11.8;100.0;100740;;;;
2023/01/02 01:03:00;;;;;;;0.7;0.7;;;;;;;11.8;100.0;100740;;;;
2023/01/02 01:04:00;;;;;;;0.7;0.7;;;;;;;11.8;100.0;100740;;;;
2023/01/02 01:05:00;;;;;;;0.7;0.7;;;;;;;11.8;100.0;100740;;;;
2023/01/02 01:06:08;;;;;;;0.7;0.7;;;;;;;11.9;100.0;100740;;;;
2023/01/02 01:07:00;;;;;;;0.7;0.7;;;;;;;11.9;100.0;100740;;;;
2023/01/02 01:08:00;;;;;;;0.7;0.7;;;;;;;11.8;100.0;100740;;;;
2023/01/02 01:09:00;;;;;;;0.7;0.7;;;;;;;11.8;100.0;100740;;;;
2023/01/02 01:10:00;;;;;;;0.7;0.7;;;;;;;11.8;100.0;100740;;;;
2023/01/02 01:11:10;;;;;;;0.7;0.7;;;;;;;11.8;100.0;100740;;;;
2023/01/02 01:12:05;;;;;;;0.7;0.7;;;;;;;11.9;100.0;100730;;;;
2023/01/02 01:13:00;;;;;;;0.7;0.7;;;;;;;11.9;100.0;100730;;;;
2023/01/02 01:14:00;;;;;;;0.7;0.7;;;;;;;11.9;100.0;100730;;;;
2023/01/02 01:15:00;;;;;;;0.7;0.7;;;;;;;11.9;100.0;100730;;;;
2023/01/02 01:16:08;;;;;;;0.7;0.7;;;;;;;11.9;100.0;100720;;;;
2023/01/02 01:17:00;;;;;;;0.7;0.7;;;;;;;11.9;100.0;100720;;;;
2023/01/02 01:18:00;;;;;;;0.7;0.7;;;;;;;11.9;100.0;100720;;;;
2023/01/02 01:19:00;;;;;;;0.7;0.7;;;;;;;11.9;100.0;100720;;;;
2023/01/02 01:20:00;;;;;;;0.7;0.7;;;;;;;11.9;100.0;100720;;;;
2023/01/02 01:21:10;;;;;;;0.7;0.7;;;;;;;11.9;100.0;100720;;;;
2023/01/02 01:22:00;;;;;;;0.7;0.7;;;;;;;11.9;100.0;100730;;;;
2023/01/02 01:23:00;;;;;;;0.7;0.7;;;;;;;11.9;100.0;100730;;;;
2023/01/02 01:24:00;;;;;;;0.7;0.7;;;;;;;11.9;100.0;100720;;;;
2023/01/02 01:25:00;;;;;;;0.7;0.7;;;;;;;11.9;100.0;100720;;;;
2023/01/02 01:26:05;;;;;;;0.7;0.7;;;;;;;11.9;100.0;100720;;;;
2023/01/02 01:27:00;;;;;;;0.7;0.7;;;;;;;11.9;100.0;100720;;;;
2023/01/02 01:28:00;;;;;;;0.7;0.7;;;;;;;11.9;100.0;100720;;;;
2023/01/02 01:29:00;;;;;;;0.7;0.7;;;;;;;11.9;100.0;100720;;;;
2023/01/02 01:30:00;;;;;;;0.7;0.7;;;;;;;11.9;100.0;100720;;;;
2023/01/02 01:31:01;;;;;;;0.7;0.7;;;;;;;11.9;100.0;100720;;;;
2023/01/02 01:32:00;;;;;;;0.7;0.7;;;;;;;11.9;100.0;100720;;;;
2023/01/02 01:33:00;;;;;;;0.7;0.7;;;;;;;11.9;100.0;100720;;;;
2023/01/02 01:34:00;;;;;;;0.7;0.7;;;;;;;12.0;100.0;100730;;;;
2023/01/02 01:35:00;;;;;;;1.0;1.0;;;;;;;12.0;100.0;100730;;;;
2023/01/02 01:36:01;;;;;;;1.0;1.0;;;;;;;11.9;100.0;100720;;;;
2023/01/02 01:37:00;;;;;;;1.0;1.0;;;;;;;11.9;100.0;100720;;;;
2023/01/02 01:38:00;;;;;;;1.0;1.0;;;;;;;12.0;100.0;100730;;;;
2023/01/02 01:39:00;;;;;;;1.0;1.0;;;;;;;12.0;100.0;100730;;;;
2023/01/02 01:40:00;;;;;;;1.0;1.0;;;;;;;11.9;100.0;100730;;;;
2023/01/02 01:41:00;;;;;;;1.0;1.0;;;;;;;11.9;100.0;100730;;;;
2023/01/02 01:42:00;;;;;;;1.0;1.0;;;;;;;11.9;100.0;100730;;;;
2023/01/02 01:43:01;;;;;;;1.0;1.0;;;;;;;11.9;100.0;100730;;;;
2023/01/02 01:44:01;;;;;;;1.0;1.0;;;;;;;11.9;100.0;100730;;;;
2023/01/02 01:45:00;;;;;;;1.0;1.0;;;;;;;11.9;100.0;100730;;;;
2023/01/02 01:46:00;;;;;;;1.0;1.0;;;;;;;11.9;100.0;100730;;;;
2023/01/02 01:47:01;;;;;;;1.0;1.0;;;;;;;11.9;100.0;100730;;;;
2023/01/02 01:48:00;;;;;;;1.0;1.0;;;;;;;12.1;100.0;100730;;;;
2023/01/02 01:49:01;;;;;;;1.0;1.0;;;;;;;12.1;100.0;100730;;;;
2023/01/02 01:50:10;;;;;;;1.0;1.0;;;;;;;12.0;100.0;100740;;;;
2023/01/02 01:51:00;;;;;;;1.0;1.0;;;;;;;12.0;100.0;100740;;;;
2023/01/02 01:52:03;;;;;;;1.0;1.0;;;;;;;12.0;100.0;100740;;;;
2023/01/02 01:53:02;;;;;;;1.0;1.0;;;;;;;12.0;100.0;100740;;;;
2023/01/02 01:54:04;;;;;;;1.0;1.0;;;;;;;12.1;100.0;100730;;;;
2023/01/02 01:55:02;;;;;;;0.6;0.6;;;;;;;12.1;100.0;100730;;;;
2023/01/02 01:56:03;;;;;;;0.6;0.6;;;;;;;12.1;100.0;100740;;;;
2023/01/02 01:57:03;;;;;;;0.6;0.6;;;;;;;12.1;100.0;100740;;;;
2023/01/02 01:58:03;;;;;;;0.6;0.6;;;;;;;12.1;100.0;100740;;;;
2023/01/02 01:59:00;;;;;;;0.6;0.6;;;;;;;12.1;100.0;100740;;;;
2023/01/02 02:00:00;;;;;;;0.6;0.6;;;;;;;12.1;100.0;100740;;;;
2023/01/02 02:01:01;;;;;;;0.6;0.6;;;;;;;12.1;100.0;100740;;;;
2023/01/02 02:02:00;;;;;;;0.6;0.6;;;;;;;12.1;100.0;100750;;;;
2023/01/02 02:03:03;;;;;;;0.6;0.6;;;;;;;12.1;100.0;100750;;;;
2023/01/02 02:04:00;;;;;;;0.6;0.6;;;;;;;12.2;100.0;100740;;;;
2023/01/02 02:05:02;;;;;;;0.6;0.6;;;;;;;12.2;100.0;100740;;;;
2023/01/02 02:06:00;;;;;;;0.6;0.6;;;;;;;12.2;100.0;100740;;;;
2023/01/02 02:07:00;;;;;;;0.6;0.6;;;;;;;12.2;100.0;100740;;;;
2023/01/02 02:08:07;;;;;;;0.6;0.6;;;;;;;12.1;100.0;100740;;;;
2023/01/02 02:09:03;;;;;;;0.6;0.6;;;;;;;12.1;100.0;100740;;;;
2023/01/02 02:10:06;;;;;;;0.6;0.6;;;;;;;12.1;100.0;100740;;;;
2023/01/02 02:11:01;;;;;;;0.6;0.6;;;;;;;12.1;100.0;100740;;;;
2023/01/02 02:12:01;;;;;;;0.6;0.6;;;;;;;12.1;100.0;100740;;;;
2023/01/02 02:13:00;;;;;;;0.6;0.6;;;;;;;12.1;100.0;100740;;;;
2023/01/02 02:14:00;;;;;;;0.6;0.6;;;;;;;12.1;100.0;100740;;;;
2023/01/02 02:15:00;;;;;;;0.6;0.6;;;;;;;12.1;100.0;100740;;;;
2023/01/02 02:16:01;;;;;;;0.6;0.6;;;;;;;12.2;100.0;100740;;;;
2023/01/02 02:17:10;;;;;;;0.6;0.6;;;;;;;12.2;100.0;100740;;;;
2023/01/02 02:18:10;;;;;;;0.6;0.6;;;;;;;12.2;100.0;100740;;;;
2023/01/02 02:19:03;;;;;;;0.6;0.6;;;;;;;12.2;100.0;100740;;;;
2023/01/02 02:20:00;;;;;;;0.6;0.6;;;;;;;12.1;100.0;100750;;;;
2023/01/02 02:21:10;;;;;;;0.6;0.6;;;;;;;12.1;100.0;100750;;;;
2023/01/02 02:22:09;;;;;;;0.6;0.6;;;;;;;12.1;100.0;100740;;;;
2023/01/02 02:23:10;;;;;;;0.6;0.6;;;;;;;12.1;100.0;100740;;;;
2023/01/02 02:24:10;;;;;;;0.6;0.6;;;;;;;12.1;100.0;100750;;;;
2023/01/02 02:25:10;;;;;;;0.6;0.6;;;;;;;12.1;100.0;100750;;;;
2023/01/02 02:26:10;;;;;;;0.6;0.6;;;;;;;12.0;100.0;100740;;;;
2023/01/02 02:27:08;;;;;;;0.6;0.6;;;;;;;12.0;100.0;100740;;;;
2023/01/02 02:28:10;;;;;;;0.6;0.6;;;;;;;12.1;100.0;100740;;;;
2023/01/02 02:29:10;;;;;;;0.6;0.6;;;;;;;12.1;100.0;100740;;;;
2023/01/02 02:30:01;;;;;;;0.6;0.6;;;;;;;12.1;100.0;100750;;;;
2023/01/02 02:31:10;;;;;;;0.6;0.6;;;;;;;12.1;100.0;100750;;;;
2023/01/02 02:32:09;;;;;;;0.6;0.6;;;;;;;12.1;100.0;100750;;;;
2023/01/02 02:33:11;;;;;;;0.6;0.6;;;;;;;12.1;100.0;100750;;;;
2023/01/02 02:34:00;;;;;;;0.6;0.6;;;;;;;12.1;100.0;100750;;;;
2023/01/02 02:35:00;;;;;;;0.8;0.8;;;;;;;12.1;100.0;100750;;;;
2023/01/02 02:36:02;;;;;;;0.8;0.8;;;;;;;12.1;100.0;100750;;;;
2023/01/02 02:37:05;;;;;;;0.8;0.8;;;;;;;12.1;100.0;100750;;;;
2023/01/02 02:38:06;;;;;;;0.8;0.8;;;;;;;12.1;100.0;100740;;;;
2023/01/02 02:39:10;;;;;;;0.8;0.8;;;;;;;12.1;100.0;100740;;;;
2023/01/02 02:40:08;;;;;;;0.8;0.8;;;;;;;12.1;100.0;100740;;;;
2023/01/02 02:41:03;;;;;;;0.8;0.8;;;;;;;12.1;100.0;100740;;;;
2023/01/02 02:42:10;;;;;;;0.8;0.8;;;;;;;12.1;100.0;100740;;;;
2023/01/02 02:43:10;;;;;;;0.8;0.8;;;;;;;12.1;100.0;100740;;;;
2023/01/02 02:44:04;;;;;;;0.8;0.8;;;;;;;12.1;100.0;100740;;;;
2023/01/02 02:45:09;;;;;;;0.8;0.8;;;;;;;12.1;100.0;100740;;;;
2023/01/02 02:46:06;;;;;;;0.8;0.8;;;;;;;12.1;100.0;100740;;;;
2023/01/02 02:47:04;;;;;;;0.8;0.8;;;;;;;12.1;100.0;100740;;;;
2023/01/02 02:48:04;;;;;;;0.8;0.8;;;;;;;12.1;100.0;100750;;;;
2023/01/02 02:49:01;;;;;;;0.8;0.8;;;;;;;12.1;100.0;100750;;;;
2023/01/02 02:50:04;;;;;;;0.8;0.8;;;;;;;12.2;100.0;100740;;;;
2023/01/02 02:51:03;;;;;;;0.8;0.8;;;;;;;12.2;100.0;100740;;;;
2023/01/02 02:52:00;;;;;;;0.8;0.8;;;;;;;12.1;100.0;100740;;;;
2023/01/02 02:53:03;;;;;;;0.8;0.8;;;;;;;12.1;100.0;100740;;;;
2023/01/02 02:54:03;;;;;;;0.8;0.8;;;;;;;12.1;100.0;100740;;;;
2023/01/02 02:55:04;;;;;;;0.9;0.9;;;;;;;12.1;100.0;100740;;;;
2023/01/02 02:56:02;;;;;;;0.9;0.9;;;;;;;12.1;100.0;100740;;;;
2023/01/02 02:57:01;;;;;;;0.9;0.9;;;;;;;12.1;100.0;100740;;;;
2023/01/02 02:58:00;;;;;;;0.9;0.9;;;;;;;12.1;100.0;100740;;;;
2023/01/02 02:59:00;;;;;;;0.9;0.9;;;;;;;12.1;100.0;100740;;;;
2023/01/02 03:00:02;;;;;;;0.9;0.9;;;;;;;12.1;100.0;100740;;;;
2023/01/02 03:01:01;;;;;;;0.9;0.9;;;;;;;12.1;100.0;100740;;;;
2023/01/02 03:02:01;;;;;;;0.9;0.9;;;;;;;12.2;100.0;100740;;;;
2023/01/02 03:03:00;;;;;;;0.9;0.9;;;;;;;12.2;100.0;100740;;;;
2023/01/02 03:04:00;;;;;;;0.9;0.9;;;;;;;12.1;100.0;100740;;;;
2023/01/02 03:05:02;;;;;;;0.9;0.9;;;;;;;12.1;100.0;100740;;;;
2023/01/02 03:06:10;;;;;;;0.9;0.9;;;;;;;12.2;100.0;100740;;;;
2023/01/02 03:07:03;;;;;;;0.9;0.9;;;;;;;12.2;100.0;100740;;;;
2023/01/02 03:08:10;;;;;;;0.9;0.9;;;;;;;12.2;100.0;100740;;;;
2023/01/02 03:09:10;;;;;;;0.9;0.9;;;;;;;12.2;100.0;100740;;;;
2023/01/02 03:10:09;;;;;;;0.9;0.9;;;;;;;12.2;100.0;100740;;;;
2023/01/02 03:11:01;;;;;;;0.9;0.9;;;;;;;12.2;100.0;100740;;;;
2023/01/02 03:12:10;;;;;;;0.9;0.9;;;;;;;12.2;100.0;100730;;;;
2023/01/02 03:13:10;;;;;;;0.9;0.9;;;;;;;12.2;100.0;100730;;;;
2023/01/02 03:14:02;;;;;;;0.9;0.9;;;;;;;12.2;100.0;100730;;;;
2023/01/02 03:15:01;;;;;;;0.5;0.5;;;;;;;12.2;100.0;100730;;;;
2023/01/02 03:16:07;;;;;;;0.5;0.5;;;;;;;12.2;100.0;100730;;;;
2023/01/02 03:17:02;;;;;;;0.5;0.5;;;;;;;12.2;100.0;100730;;;;
2023/01/02 03:18:10;;;;;;;0.5;0.5;;;;;;;12.2;100.0;100730;;;;
2023/01/02 03:19:04;;;;;;;0.5;0.5;;;;;;;12.2;100.0;100730;;;;
2023/01/02 03:20:03;;;;;;;0.5;0.5;;;;;;;12.1;100.0;100730;;;;
2023/01/02 03:21:10;;;;;;;0.5;0.5;;;;;;;12.1;100.0;100730;;;;
2023/01/02 03:22:00;;;;;;;0.5;0.5;;;;;;;12.1;100.0;100730;;;;
2023/01/02 03:23:02;;;;;;;0.5;0.5;;;;;;;12.1;100.0;100730;;;;
2023/01/02 03:24:03;;;;;;;0.5;0.5;;;;;;;12.2;100.0;100730;;;;
2023/01/02 03:25:02;;;;;;;0.5;0.5;;;;;;;12.2;100.0;100730;;;;
2023/01/02 03:26:01;;;;;;;0.5;0.5;;;;;;;12.2;100.0;100740;;;;
2023/01/02 03:27:03;;;;;;;0.5;0.5;;;;;;;12.2;100.0;100740;;;;
2023/01/02 03:28:03;;;;;;;0.5;0.5;;;;;;;12.2;100.0;100740;;;;
2023/01/02 03:29:02;;;;;;;0.5;0.5;;;;;;;12.2;100.0;100740;;;;
2023/01/02 03:30:02;;;;;;;0.5;0.5;;;;;;;12.1;100.0;100740;;;;
2023/01/02 03:31:01;;;;;;;0.5;0.5;;;;;;;12.1;100.0;100740;;;;
2023/01/02 03:32:01;;;;;;;0.5;0.5;;;;;;;12.1;100.0;100730;;;;
2023/01/02 03:33:03;;;;;;;0.5;0.5;;;;;;;12.1;100.0;100730;;;;
2023/01/02 03:34:03;;;;;;;0.5;0.5;;;;;;;12.1;100.0;100730;;;;
2023/01/02 03:35:02;;;;;;;0.6;0.6;;;;;;;12.1;100.0;100730;;;;
2023/01/02 03:36:03;;;;;;;0.6;0.6;;;;;;;12.1;100.0;100730;;;;
2023/01/02 03:37:03;;;;;;;0.6;0.6;;;;;;;12.1;100.0;100730;;;;
2023/01/02 03:38:01;;;;;;;0.6;0.6;;;;;;;12.1;100.0;100730;;;;
2023/01/02 03:39:04;;;;;;;0.6;0.6;;;;;;;12.1;100.0;100730;;;;
2023/01/02 03:40:03;;;;;;;0.6;0.6;;;;;;;12.1;100.0;100730;;;;
2023/01/02 03:41:10;;;;;;;0.6;0.6;;;;;;;12.1;100.0;100730;;;;
2023/01/02 03:42:03;;;;;;;0.6;0.6;;;;;;;12.2;100.0;100730;;;;
2023/01/02 03:43:00;;;;;;;0.6;0.6;;;;;;;12.2;100.0;100730;;;;
2023/01/02 03:44:00;;;;;;;0.6;0.6;;;;;;;12.2;100.0;100730;;;;
2023/01/02 03:45:04;;;;;;;0.6;0.6;;;;;;;12.2;100.0;100730;;;;
2023/01/02 03:46:00;;;;;;;0.6;0.6;;;;;;;12.2;100.0;100740;;;;
2023/01/02 03:47:10;;;;;;;0.6;0.6;;;;;;;12.2;100.0;100740;;;;
2023/01/02 03:48:10;;;;;;;0.6;0.6;;;;;;;12.2;100.0;100740;;;;
2023/01/02 03:49:01;;;;;;;0.6;0.6;;;;;;;12.2;100.0;100740;;;;
2023/01/02 03:50:04;;;;;;;0.6;0.6;;;;;;;12.2;100.0;100740;;;;
2023/01/02 03:51:01;;;;;;;0.6;0.6;;;;;;;12.2;100.0;100740;;;;
2023/01/02 03:52:00;;;;;;;0.6;0.6;;;;;;;12.2;100.0;100750;;;;
2023/01/02 03:53:00;;;;;;;0.6;0.6;;;;;;;12.2;100.0;100750;;;;
2023/01/02 03:54:01;;;;;;;0.6;0.6;;;;;;;12.1;100.0;100750;;;;
2023/01/02 03:55:00;;;;;;;0.5;0.5;;;;;;;12.1;100.0;100750;;;;
2023/01/02 03:56:10;;;;;;;0.5;0.5;;;;;;;12.2;100.0;100760;;;;
2023/01/02 03:57:00;;;;;;;0.5;0.5;;;;;;;12.2;100.0;100760;;;;
2023/01/02 03:58:07;;;;;;;0.5;0.5;;;;;;;12.1;100.0;100760;;;;
2023/01/02 03:59:06;;;;;;;0.5;0.5;;;;;;;12.1;100.0;100760;;;;
2023/01/02 04:00:04;;;;;;;0.5;0.5;;;;;;;12.2;100.0;100760;;;;
2023/01/02 04:01:03;;;;;;;0.5;0.5;;;;;;;12.2;100.0;100760;;;;
2023/01/02 04:02:04;;;;;;;0.5;0.5;;;;;;;12.1;100.0;100760;;;;
2023/01/02 04:03:10;;;;;;;0.5;0.5;;;;;;;12.1;100.0;100760;;;;
2023/01/02 04:04:07;;;;;;;0.5;0.5;;;;;;;12.2;100.0;100760;;;;
2023/01/02 04:05:06;;;;;;;0.5;0.5;;;;;;;12.2;100.0;100760;;;;
2023/01/02 04:06:04;;;;;;;0.5;0.5;;;;;;;12.2;100.0;100750;;;;
2023/01/02 04:07:02;;;;;;;0.5;0.5;;;;;;;12.2;100.0;100750;;;;
2023/01/02 04:08:07;;;;;;;0.5;0.5;;;;;;;12.3;100.0;100760;;;;
2023/01/02 04:09:06;;;;;;;0.5;0.5;;;;;;;12.3;100.0;100760;;;;
2023/01/02 04:10:01;;;;;;;0.5;0.5;;;;;;;12.2;100.0;100750;;;;
2023/01/02 04:11:01;;;;;;;0.5;0.5;;;;;;;12.2;100.0;100750;;;;
2023/01/02 04:12:05;;;;;;;0.5;0.5;;;;;;;12.2;100.0;100760;;;;
2023/01/02 04:13:03;;;;;;;0.5;0.5;;;;;;;12.2;100.0;100760;;;;
2023/01/02 04:14:02;;;;;;;0.5;0.5;;;;;;;12.2;100.0;100760;;;;
2023/01/02 04:15:04;;;;;;;0.6;0.6;;;;;;;12.2;100.0;100760;;;;
2023/01/02 04:16:02;;;;;;;0.6;0.6;;;;;;;12.2;100.0;100760;;;;
2023/01/02 04:17:02;;;;;;;0.6;0.6;;;;;;;12.2;100.0;100760;;;;
2023/01/02 04:18:04;;;;;;;0.6;0.6;;;;;;;12.2;100.0;100760;;;;
2023/01/02 04:19:03;;;;;;;0.6;0.6;;;;;;;12.2;100.0;100760;;;;
2023/01/02 04:20:04;;;;;;;0.6;0.6;;;;;;;12.2;100.0;100760;;;;
2023/01/02 04:21:04;;;;;;;0.6;0.6;;;;;;;12.2;100.0;100760;;;;
2023/01/02 04:22:03;;;;;;;0.6;0.6;;;;;;;12.2;100.0;100760;;;;
2023/01/02 04:23:03;;;;;;;0.6;0.6;;;;;;;12.2;100.0;100760;;;;
2023/01/02 04:24:10;;;;;;;0.6;0.6;;;;;;;12.1;100.0;100760;;;;
2023/01/02 04:25:02;;;;;;;0.6;0.6;;;;;;;12.1;100.0;100760;;;;
2023/01/02 04:26:05;;;;;;;0.6;0.6;;;;;;;12.1;100.0;100770;;;;
2023/01/02 04:27:03;;;;;;;0.6;0.6;;;;;;;12.1;100.0;100770;;;;
2023/01/02 04:28:03;;;;;;;0.6;0.6;;;;;;;12.1;100.0;100770;;;;
2023/01/02 04:29:00;;;;;;;0.6;0.6;;;;;;;12.1;100.0;100770;;;;
2023/01/02 04:30:00;;;;;;;0.6;0.6;;;;;;;12.2;100.0;100760;;;;
2023/01/02 04:31:06;;;;;;;0.6;0.6;;;;;;;12.2;100.0;100760;;;;
2023/01/02 04:32:03;;;;;;;0.6;0.6;;;;;;;12.1;100.0;100770;;;;
2023/01/02 04:33:04;;;;;;;0.6;0.6;;;;;;;12.1;100.0;100770;;;;
2023/01/02 04:34:01;;;;;;;0.6;0.6;;;;;;;12.2;100.0;100770;;;;
2023/01/02 04:35:04;;;;;;;0.6;0.6;;;;;;;12.2;100.0;100770;;;;
2023/01/02 04:36:06;;;;;;;0.6;0.6;;;;;;;12.2;100.0;100770;;;;
2023/01/02 04:37:00;;;;;;;0.6;0.6;;;;;;;12.2;100.0;100770;;;;
2023/01/02 04:38:08;;;;;;;0.6;0.6;;;;;;;12.1;100.0;100770;;;;
2023/01/02 04:39:00;;;;;;;0.6;0.6;;;;;;;12.1;100.0;100770;;;;
2023/01/02 04:40:03;;;;;;;0.6;0.6;;;;;;;12.1;100.0;100780;;;;
2023/01/02 04:41:00;;;;;;;0.6;0.6;;;;;;;12.1;100.0;100780;;;;
2023/01/02 04:42:00;;;;;;;0.6;0.6;;;;;;;12.1;100.0;100780;;;;
2023/01/02 04:43:00;;;;;;;0.6;0.6;;;;;;;12.1;100.0;100780;;;;
2023/01/02 04:44:00;;;;;;;0.6;0.6;;;;;;;12.1;100.0;100780;;;;
2023/01/02 04:45:00;;;;;;;0.6;0.6;;;;;;;12.1;100.0;100780;;;;
2023/01/02 04:46:00;;;;;;;0.6;0.6;;;;;;;12.1;100.0;100780;;;;
2023/01/02 04:47:00;;;;;;;0.6;0.6;;;;;;;12.1;100.0;100780;;;;
2023/01/02 04:48:00;;;;;;;0.6;0.6;;;;;;;12.1;100.0;100780;;;;
2023/01/02 04:49:00;;;;;;;0.6;0.6;;;;;;;12.1;100.0;100780;;;;
2023/01/02 04:50:00;;;;;;;0.6;0.6;;;;;;;12.1;100.0;100790;;;;
2023/01/02 04:51:00;;;;;;;0.6;0.6;;;;;;;12.1;100.0;100790;;;;
2023/01/02 04:52:00;;;;;;;0.6;0.6;;;;;;;12.1;100.0;100790;;;;
2023/01/02 04:53:00;;;;;;;0.6;0.6;;;;;;;12.1;100.0;100800;;;;
2023/01/02 04:54:00;;;;;;;0.6;0.6;;;;;;;12.1;100.0;100790;;;;
2023/01/02 04:55:00;;;;;;;0.6;0.6;;;;;;;12.1;100.0;100790;;;;
2023/01/02 04:56:00;;;;;;;0.6;0.6;;;;;;;12.1;100.0;100790;;;;
2023/01/02 04:57:00;;;;;;;0.6;0.6;;;;;;;12.1;100.0;100790;;;;
2023/01/02 04:58:00;;;;;;;0.6;0.6;;;;;;;12.1;100.0;100790;;;;
2023/01/02 04:59:00;;;;;;;0.6;0.6;;;;;;;12.1;100.0;100790;;;;
2023/01/02 05:00:00;;;;;;;0.6;0.6;;;;;;;12.2;100.0;100790;;;;
2023/01/02 05:01:00;;;;;;;0.6;0.6;;;;;;;12.2;100.0;100790;;;;
2023/01/02 05:02:00;;;;;;;0.6;0.6;;;;;;;12.1;100.0;100800;;;;
2023/01/02 05:03:01;;;;;;;0.6;0.6;;;;;;;12.1;100.0;100800;;;;
2023/01/02 05:04:00;;;;;;;0.6;0.6;;;;;;;12.2;100.0;100790;;;;
2023/01/02 05:05:00;;;;;;;0.6;0.6;;;;;;;12.2;100.0;100790;;;;
2023/01/02 05:06:00;;;;;;;0.6;0.6;;;;;;;12.1;100.0;100790;;;;
2023/01/02 05:07:01;;;;;;;0.6;0.6;;;;;;;12.1;100.0;100790;;;;
2023/01/02 05:08:00;;;;;;;0.6;0.6;;;;;;;12.1;100.0;100810;;;;
2023/01/02 05:09:00;;;;;;;0.6;0.6;;;;;;;12.1;100.0;100810;;;;
2023/01/02 05:10:00;;;;;;;0.6;0.6;;;;;;;12.2;100.0;100810;;;;
2023/01/02 05:11:10;;;;;;;0.6;0.6;;;;;;;12.2;100.0;100810;;;;
2023/01/02 05:12:00;;;;;;;0.6;0.6;;;;;;;12.1;100.0;100800;;;;
2023/01/02 05:13:00;;;;;;;0.6;0.6;;;;;;;12.1;100.0;100800;;;;
2023/01/02 05:14:07;;;;;;;0.6;0.6;;;;;;;12.1;100.0;100810;;;;
2023/01/02 05:15:00;;;;;;;0.7;0.7;;;;;;;12.1;100.0;100810;;;;
2023/01/02 05:16:00;;;;;;;0.7;0.7;;;;;;;12.2;100.0;100810;;;;
2023/01/02 05:17:00;;;;;;;0.7;0.7;;;;;;;12.2;100.0;100810;;;;
2023/01/02 05:18:00;;;;;;;0.7;0.7;;;;;;;12.2;100.0;100810;;;;
2023/01/02 05:19:00;;;;;;;0.7;0.7;;;;;;;12.2;100.0;100810;;;;
2023/01/02 05:20:00;;;;;;;0.7;0.7;;;;;;;12.1;100.0;100810;;;;
2023/01/02 05:21:05;;;;;;;0.7;0.7;;;;;;;12.1;100.0;100810;;;;
2023/01/02 05:24:01;;;;;;;0.7;0.7;;;;;;;12.1;100.0;100810;;;;
2023/01/02 05:25:00;;;;;;;0.7;0.7;;;;;;;12.1;100.0;100810;;;;
2023/01/02 05:26:00;;;;;;;0.7;0.7;;;;;;;12.2;100.0;100810;;;;
2023/01/02 05:27:00;;;;;;;0.7;0.7;;;;;;;12.2;100.0;100810;;;;
2023/01/02 05:28:01;;;;;;;0.7;0.7;;;;;;;12.1;100.0;100810;;;;
2023/01/02 05:29:00;;;;;;;0.7;0.7;;;;;;;12.1;100.0;100810;;;;
2023/01/02 05:30:00;;;;;;;0.7;0.7;;;;;;;12.1;100.0;100810;;;;
2023/01/02 05:31:00;;;;;;;0.7;0.7;;;;;;;12.1;100.0;100810;;;;
2023/01/02 05:32:00;;;;;;;0.7;0.7;;;;;;;12.1;100.0;100810;;;;
2023/01/02 05:33:00;;;;;;;0.7;0.7;;;;;;;12.1;100.0;100810;;;;
2023/01/02 05:34:00;;;;;;;0.7;0.7;;;;;;;12.1;100.0;100810;;;;
2023/01/02 05:35:00;;;;;;;0.6;0.6;;;;;;;12.1;100.0;100810;;;;
2023/01/02 05:36:00;;;;;;;0.6;0.6;;;;;;;12.2;100.0;100820;;;;
2023/01/02 05:37:00;;;;;;;0.6;0.6;;;;;;;12.2;100.0;100820;;;;
2023/01/02 05:38:00;;;;;;;0.6;0.6;;;;;;;12.1;100.0;100810;;;;
2023/01/02 05:39:00;;;;;;;0.6;0.6;;;;;;;12.1;100.0;100810;;;;
2023/01/02 05:40:00;;;;;;;0.6;0.6;;;;;;;12.1;100.0;100810;;;;
2023/01/02 05:41:01;;;;;;;0.6;0.6;;;;;;;12.1;100.0;100810;;;;
2023/01/02 05:42:00;;;;;;;0.6;0.6;;;;;;;12.1;100.0;100810;;;;
2023/01/02 05:43:00;;;;;;;0.6;0.6;;;;;;;12.1;100.0;100810;;;;
2023/01/02 05:44:00;;;;;;;0.6;0.6;;;;;;;12.1;100.0;100810;;;;
2023/01/02 05:45:00;;;;;;;0.6;0.6;;;;;;;12.1;100.0;100820;;;;
2023/01/02 05:46:08;;;;;;;0.6;0.6;;;;;;;12.1;100.0;100820;;;;
2023/01/02 05:47:00;;;;;;;0.6;0.6;;;;;;;12.1;100.0;100820;;;;
2023/01/02 05:48:00;;;;;;;0.6;0.6;;;;;;;12.1;100.0;100830;;;;
2023/01/02 05:49:03;;;;;;;0.6;0.6;;;;;;;12.1;100.0;100830;;;;
2023/01/02 05:50:00;;;;;;;0.6;0.6;;;;;;;12.2;100.0;100830;;;;
2023/01/02 05:51:01;;;;;;;0.6;0.6;;;;;;;12.2;100.0;100830;;;;
2023/01/02 05:52:00;;;;;;;0.6;0.6;;;;;;;12.1;100.0;100840;;;;
2023/01/02 05:53:00;;;;;;;0.6;0.6;;;;;;;12.1;100.0;100840;;;;
2023/01/02 05:54:00;;;;;;;0.6;0.6;;;;;;;12.1;100.0;100840;;;;
2023/01/02 05:55:00;;;;;;;0.6;0.6;;;;;;;12.1;100.0;100840;;;;
2023/01/02 05:56:03;;;;;;;0.6;0.6;;;;;;;12.1;100.0;100840;;;;
2023/01/02 05:57:00;;;;;;;0.6;0.6;;;;;;;12.1;100.0;100840;;;;
2023/01/02 05:58:01;;;;;;;0.6;0.6;;;;;;;12.1;100.0;100840;;;;
2023/01/02 05:59:00;;;;;;;0.6;0.6;;;;;;;12.1;100.0;100840;;;;
2023/01/02 06:00:00;;;;;;;0.6;0.6;;;;;;;12.0;100.0;100840;;;;
2023/01/02 06:01:09;;;;;;;0.6;0.6;;;;;;;12.0;100.0;100840;;;;
2023/01/02 06:02:00;;;;;;;0.6;0.6;;;;;;;12.1;100.0;100840;;;;
2023/01/02 06:03:00;;;;;;;0.6;0.6;;;;;;;12.1;100.0;100840;;;;
2023/01/02 06:04:00;;;;;;;0.6;0.6;;;;;;;12.1;100.0;100840;;;;
2023/01/02 06:05:00;;;;;;;0.6;0.6;;;;;;;12.1;100.0;100840;;;;
2023/01/02 06:06:02;;;;;;;0.6;0.6;;;;;;;12.1;100.0;100840;;;;
2023/01/02 06:07:00;;;;;;;0.6;0.6;;;;;;;12.1;100.0;100840;;;;
2023/01/02 06:08:00;;;;;;;0.6;0.6;;;;;;;12.1;100.0;100840;;;;
2023/01/02 06:09:00;;;;;;;0.6;0.6;;;;;;;12.1;100.0;100850;;;;
2023/01/02 06:10:00;;;;;;;0.6;0.6;;;;;;;12.1;100.0;100850;;;;
2023/01/02 06:11:00;;;;;;;0.6;0.6;;;;;;;12.1;100.0;100840;;;;
2023/01/02 06:12:00;;;;;;;0.6;0.6;;;;;;;12.1;100.0;100840;;;;
2023/01/02 06:13:00;;;;;;;0.6;0.6;;;;;;;12.1;100.0;100840;;;;
2023/01/02 06:14:00;;;;;;;0.6;0.6;;;;;;;12.1;100.0;100840;;;;
2023/01/02 06:15:00;;;;;;;0.6;0.6;;;;;;;12.1;100.0;100840;;;;
2023/01/02 06:16:01;;;;;;;0.6;0.6;;;;;;;12.1;100.0;100850;;;;
2023/01/02 06:17:00;;;;;;;0.6;0.6;;;;;;;12.1;100.0;100850;;;;
2023/01/02 06:18:00;;;;;;;0.6;0.6;;;;;;;12.1;100.0;100850;;;;
2023/01/02 06:19:00;;;;;;;0.6;0.6;;;;;;;12.1;100.0;100850;;;;
2023/01/02 06:20:00;;;;;;;0.6;0.6;;;;;;;12.0;100.0;100850;;;;
2023/01/02 06:21:02;;;;;;;0.6;0.6;;;;;;;12.0;100.0;100850;;;;
2023/01/02 06:22:00;;;;;;;0.6;0.6;;;;;;;12.0;100.0;100850;;;;
2023/01/02 06:23:00;;;;;;;0.6;0.6;;;;;;;12.0;100.0;100850;;;;
2023/01/02 06:24:00;;;;;;;0.6;0.6;;;;;;;12.0;100.0;100860;;;;